Portada
METAR-TAF:

METAR-TAF

Aeroports :

Pointe-Noire, Congo

latitud: 04-49S, longitud: 011-54E, altitud: 17 m

Observació

L'informe es va fer fa 50 minuts, a les 18:00 UTC
Vent 8 kt del Sud
Temperatura 29°C
Humitat 89%
Pressió 1007 hPa
Visibilitat 10 km o més
Escasses núvols a una alçada de 1000 ft
Núvols disperses a una alçada de 2300 ft
Escasses núvols a una alçada de 3000 ft, Cumulonimbus.

METAR: FCPP 291800Z 19008KT 9999 FEW010 SCT023 FEW030CB 29/27 Q1007 NOSIG

Hora: 19:50 (18:50 UTC)

Pronòstic

L'informe es va fer fa 1 hora i 50 minuts, a les 17:00 UTC
Pronòstic vàlid del 29 a les 18 UTC al 30 a les 28 UTC
Vent 10 kt del Sud/Sud-Oest
Visibilitat 10 km o més
Escasses núvols a una alçada de 1300 ft
Escasses núvols a una alçada de 3000 ft, Cumulonimbus.
Evolucionant progressivament
l' 29 a les 21 UTC al 29 a les 23 UTC
Escasses núvols a una alçada de 1300 ft
Núvols disperses a una alçada de 2300 ft

TAF: FCPP 291700Z 2918/3028 20010KT 9999 FEW013 FEW030CB BECMG 2921/2923 FEW013 SCT023

Observacions i pronòstics meteorològics de més de 4000 aeroports (METAR i TAF).

Les estacions disponibles són els punts grocs i vermells al mapa.

Posi el ratolí al punt desitjat per veure el nom de l'estació.

Feu clic per veure les observacions i els pronòstics meteorològics.

Per canviar el mapa: feu clic els botons verds amb una creu de color negre per apropar; al botó verd amb un guió per allunyar la imatge; o en les fletxes verdes per a mapes adjacents.


METAR-TAF: